createdAt,value
2022-10-09T00:01:39.909Z,9.34
2022-10-09T00:04:44.490Z,9.52
2022-10-09T00:07:48.996Z,9.64
2022-10-09T00:10:53.625Z,9.79
2022-10-09T00:13:58.984Z,9.97
2022-10-09T00:17:03.620Z,9.79
2022-10-09T00:20:08.652Z,9.88
2022-10-09T00:23:18.283Z,9.88
2022-10-09T00:26:22.868Z,9.97
2022-10-09T00:29:27.249Z,10.18
2022-10-09T00:32:31.622Z,10.23
2022-10-09T00:35:39.919Z,10.35
2022-10-09T00:38:44.865Z,10.41
2022-10-09T00:41:49.253Z,10.60
2022-10-09T00:44:58.773Z,10.89
2022-10-09T00:48:11.591Z,10.80
2022-10-09T00:51:16.167Z,11.02
2022-10-09T00:54:26.484Z,10.92
2022-10-09T00:57:34.342Z,11.03
2022-10-09T01:00:38.743Z,11.32
2022-10-09T01:03:43.285Z,11.62
2022-10-09T01:07:00.285Z,11.84
2022-10-09T01:10:11.035Z,12.10
2022-10-09T01:13:28.965Z,12.15
2022-10-09T01:16:39.327Z,12.73
2022-10-09T01:19:49.526Z,13.10
2022-10-09T01:23:27.314Z,13.27
2022-10-09T01:26:56.156Z,13.23
2022-10-09T01:30:07.492Z,13.35
2022-10-09T01:33:12.898Z,13.47
2022-10-09T01:36:19.613Z,13.32
2022-10-09T01:39:25.177Z,13.57
2022-10-09T01:42:30.956Z,13.53
2022-10-09T01:45:44.602Z,13.57
2022-10-09T01:48:56.577Z,13.63
2022-10-09T01:52:13.805Z,13.60
2022-10-09T01:55:27.725Z,13.51
2022-10-09T01:58:38.034Z,13.64
2022-10-09T02:01:43.937Z,13.60
2022-10-09T02:04:50.474Z,13.70
2022-10-09T02:07:56.465Z,13.78
2022-10-09T02:11:03.968Z,13.69
2022-10-09T02:14:08.658Z,13.68
2022-10-09T02:17:24.686Z,13.63
2022-10-09T02:20:34.955Z,13.60
2022-10-09T02:23:41.240Z,13.62
2022-10-09T02:26:45.620Z,13.87
2022-10-09T02:29:51.059Z,14.00
2022-10-09T02:32:55.787Z,13.73
2022-10-09T02:36:00.599Z,13.62
2022-10-09T02:39:06.990Z,14.17
2022-10-09T02:42:11.944Z,14.32
2022-10-09T02:45:16.279Z,14.50
2022-10-09T02:48:21.127Z,14.54
2022-10-09T02:51:26.256Z,14.79
2022-10-09T02:54:30.679Z,14.90
2022-10-09T02:57:35.054Z,15.10
2022-10-09T03:00:40.214Z,15.30
2022-10-09T03:03:45.014Z,15.58
2022-10-09T03:06:49.584Z,15.49
2022-10-09T03:09:53.982Z,15.63
2022-10-09T03:12:58.496Z,15.70
2022-10-09T03:16:07.533Z,15.99
2022-10-09T03:19:11.906Z,16.02
2022-10-09T03:22:16.552Z,16.19
2022-10-09T03:25:21.257Z,16.00
2022-10-09T03:28:26.145Z,15.87
2022-10-09T03:31:51.192Z,16.10
2022-10-09T03:34:55.217Z,16.29
2022-10-09T03:37:59.636Z,16.47
2022-10-09T03:41:06.134Z,16.22
2022-10-09T03:44:10.658Z,15.93
2022-10-09T03:47:15.052Z,15.80
2022-10-09T03:50:19.511Z,15.89
2022-10-09T03:53:24.162Z,16.16
2022-10-09T03:56:28.737Z,16.09
2022-10-09T03:59:33.134Z,16.24
2022-10-09T04:02:38.780Z,16.32
2022-10-09T04:05:43.138Z,16.15
2022-10-09T04:08:47.399Z,15.99
2022-10-09T04:11:51.738Z,16.16
2022-10-09T04:14:56.526Z,16.08
2022-10-09T04:18:01.008Z,16.20
2022-10-09T04:21:05.641Z,16.24
2022-10-09T04:24:09.970Z,16.27
2022-10-09T04:27:14.606Z,16.17
2022-10-09T04:30:19.091Z,16.00
2022-10-09T04:33:23.539Z,16.02
2022-10-09T04:36:27.791Z,16.43
2022-10-09T04:39:32.254Z,16.16
2022-10-09T04:42:36.702Z,16.27
2022-10-09T04:45:41.527Z,16.35
2022-10-09T04:48:47.450Z,16.45
2022-10-09T04:51:51.839Z,16.49
2022-10-09T04:54:56.330Z,16.24
2022-10-09T04:58:00.609Z,16.26
2022-10-09T05:01:14.289Z,16.34
2022-10-09T05:04:18.749Z,16.32
2022-10-09T05:07:23.065Z,16.10
2022-10-09T05:10:27.496Z,15.70
2022-10-09T05:13:33.725Z,16.00
2022-10-09T05:17:00.922Z,16.11
2022-10-09T05:20:02.730Z,16.16
2022-10-09T05:23:07.288Z,16.06
2022-10-09T05:26:18.278Z,16.14
2022-10-09T05:29:22.714Z,15.89
2022-10-09T05:32:27.628Z,16.13
2022-10-09T05:35:31.838Z,15.93
2022-10-09T05:38:36.193Z,15.95
2022-10-09T05:41:40.756Z,15.83
2022-10-09T05:44:45.126Z,15.81
2022-10-09T05:47:49.538Z,15.90
2022-10-09T05:50:53.975Z,15.87
2022-10-09T05:53:59.248Z,15.74
2022-10-09T05:57:05.459Z,15.66
2022-10-09T06:00:10.541Z,15.49
2022-10-09T06:03:16.277Z,15.61
2022-10-09T06:06:23.648Z,15.61
2022-10-09T06:09:28.332Z,15.60
2022-10-09T06:12:32.846Z,15.55
2022-10-09T06:15:37.284Z,15.65
2022-10-09T06:18:48.138Z,15.59
2022-10-09T06:21:53.465Z,15.52
2022-10-09T06:24:57.955Z,15.50
2022-10-09T06:28:02.682Z,15.52
2022-10-09T06:31:11.312Z,15.52
2022-10-09T06:34:15.892Z,15.58
2022-10-09T06:37:20.270Z,15.48
2022-10-09T06:40:24.639Z,15.31
2022-10-09T06:43:29.030Z,15.29
2022-10-09T06:46:36.537Z,14.86
2022-10-09T06:49:41.348Z,15.27
2022-10-09T06:52:46.104Z,15.41
2022-10-09T06:55:58.460Z,15.24
2022-10-09T06:59:05.184Z,15.11
2022-10-09T07:02:10.773Z,15.14
2022-10-09T07:05:16.497Z,15.00
2022-10-09T07:08:20.884Z,15.03
2022-10-09T07:11:31.937Z,15.12
2022-10-09T07:14:36.412Z,15.08
2022-10-09T07:17:40.963Z,15.03
2022-10-09T07:20:45.100Z,14.96
2022-10-09T07:23:49.979Z,15.01
2022-10-09T07:26:57.819Z,14.85
2022-10-09T07:30:02.206Z,14.87
2022-10-09T07:33:07.448Z,14.80
2022-10-09T07:36:12.773Z,14.56
2022-10-09T07:39:20.157Z,14.65
2022-10-09T07:42:24.424Z,14.62
2022-10-09T07:45:29.121Z,14.80
2022-10-09T07:48:33.376Z,14.70
2022-10-09T07:51:38.280Z,14.59
2022-10-09T07:54:42.751Z,14.54
2022-10-09T07:57:47.326Z,14.51
2022-10-09T08:00:51.706Z,14.48
2022-10-09T08:03:57.061Z,14.54
2022-10-09T08:07:01.588Z,14.32
2022-10-09T08:10:07.014Z,14.10
2022-10-09T08:13:11.394Z,14.23
2022-10-09T08:16:16.683Z,14.21
2022-10-09T08:19:21.094Z,14.04
2022-10-09T08:22:25.824Z,14.07
2022-10-09T08:25:30.604Z,13.86
2022-10-09T08:28:35.048Z,13.81
2022-10-09T08:31:39.600Z,13.58
2022-10-09T08:34:44.101Z,13.67
2022-10-09T08:37:48.481Z,13.51
2022-10-09T08:41:03.359Z,13.58
2022-10-09T08:44:31.223Z,13.49
2022-10-09T08:47:44.606Z,13.36
2022-10-09T08:50:52.680Z,13.42
2022-10-09T08:54:04.106Z,13.35
2022-10-09T08:57:15.194Z,13.26
2022-10-09T09:00:25.817Z,13.21
2022-10-09T09:03:33.115Z,13.19
2022-10-09T09:06:40.433Z,13.09
2022-10-09T09:10:01.637Z,13.01
2022-10-09T09:13:21.096Z,12.98
2022-10-09T09:17:18.759Z,12.86
2022-10-09T09:20:50.179Z,12.84
2022-10-09T09:23:54.785Z,12.78
2022-10-09T09:27:04.822Z,12.71
2022-10-09T09:30:19.671Z,12.69
2022-10-09T09:33:37.317Z,12.66
2022-10-09T09:36:55.491Z,12.48
2022-10-09T09:43:27.219Z,12.36
2022-10-09T09:46:33.537Z,12.33
2022-10-09T09:49:38.026Z,12.33
2022-10-09T09:52:46.768Z,12.33
2022-10-09T09:55:55.383Z,12.08
2022-10-09T09:58:59.775Z,12.03
2022-10-09T10:02:24.845Z,11.88
2022-10-09T10:05:29.316Z,11.57
2022-10-09T10:08:37.336Z,11.24
2022-10-09T10:12:09.965Z,11.42
2022-10-09T10:15:31.814Z,11.39
2022-10-09T10:18:44.390Z,11.25
2022-10-09T10:21:51.500Z,11.31
2022-10-09T10:24:59.272Z,11.26
2022-10-09T10:28:12.797Z,11.30
2022-10-09T10:31:27.692Z,11.04
2022-10-09T10:34:40.169Z,11.05
2022-10-09T10:38:02.792Z,11.14
2022-10-09T10:41:18.727Z,10.81
2022-10-09T10:44:32.123Z,10.47
2022-10-09T10:47:44.359Z,10.56
2022-10-09T10:51:06.626Z,10.67
2022-10-09T10:55:05.011Z,10.73
2022-10-09T10:58:39.021Z,10.46
2022-10-09T11:01:53.272Z,10.41
2022-10-09T11:05:28.063Z,10.41
2022-10-09T11:08:57.255Z,10.03
2022-10-09T11:12:46.716Z,10.31
2022-10-09T11:16:13.015Z,10.27
2022-10-09T11:19:20.367Z,10.19
2022-10-09T11:22:47.309Z,10.28
2022-10-09T11:26:25.296Z,10.34
2022-10-09T11:29:36.053Z,10.03
2022-10-09T11:32:48.531Z,10.05
2022-10-09T11:36:11.490Z,10.25
2022-10-09T11:39:32.061Z,9.99
2022-10-09T11:42:37.597Z,9.92
2022-10-09T11:45:47.069Z,9.67
2022-10-09T11:49:32.785Z,9.61
2022-10-09T11:52:37.065Z,9.64
2022-10-09T11:55:41.639Z,9.37
2022-10-09T11:58:56.955Z,9.65
2022-10-09T12:02:15.248Z,9.62
2022-10-09T12:05:38.122Z,9.58
2022-10-09T12:09:09.524Z,9.52
2022-10-09T12:12:17.279Z,9.56
2022-10-09T12:15:30.021Z,9.65
2022-10-09T12:18:46.402Z,9.87
2022-10-09T12:22:29.256Z,9.80
2022-10-09T12:25:43.793Z,9.65
2022-10-09T12:29:01.079Z,9.60
2022-10-09T12:32:09.143Z,9.82
2022-10-09T12:35:35.706Z,9.83
2022-10-09T12:38:40.013Z,9.78
2022-10-09T12:41:47.297Z,9.84
2022-10-09T12:44:55.417Z,9.72
2022-10-09T12:48:09.722Z,9.67
2022-10-09T12:51:24.083Z,9.64
2022-10-09T12:54:31.340Z,9.32
2022-10-09T12:57:35.955Z,9.19
2022-10-09T13:00:41.732Z,8.99
2022-10-09T13:03:54.778Z,8.84
2022-10-09T13:07:03.123Z,8.77
2022-10-09T13:10:18.169Z,8.88
2022-10-09T13:13:28.759Z,8.59
2022-10-09T13:16:48.545Z,8.79
2022-10-09T13:19:56.062Z,8.88
2022-10-09T13:23:03.116Z,8.82
2022-10-09T13:26:07.946Z,8.85
2022-10-09T13:29:13.477Z,8.80
2022-10-09T13:32:19.190Z,9.05
2022-10-09T13:35:23.576Z,8.97
2022-10-09T13:38:31.394Z,8.97
2022-10-09T13:41:38.670Z,8.81
2022-10-09T13:44:43.427Z,9.07
2022-10-09T13:47:48.263Z,9.09
2022-10-09T13:50:53.516Z,9.05
2022-10-09T13:53:57.902Z,8.81
2022-10-09T13:57:02.209Z,8.57
2022-10-09T14:00:08.473Z,8.80
2022-10-09T14:03:19.080Z,8.70
2022-10-09T14:06:23.775Z,8.57
2022-10-09T14:09:28.310Z,8.40
2022-10-09T14:12:32.578Z,8.38
2022-10-09T14:15:40.981Z,8.37
2022-10-09T14:18:45.389Z,8.27
2022-10-09T14:21:49.764Z,8.16
2022-10-09T14:24:54.248Z,8.44
2022-10-09T14:27:58.629Z,8.31
2022-10-09T14:31:07.206Z,8.34
2022-10-09T14:34:14.745Z,8.08
2022-10-09T14:37:39.975Z,8.30
2022-10-09T14:40:45.061Z,8.05
2022-10-09T14:43:56.994Z,8.20
2022-10-09T14:47:01.530Z,8.07
2022-10-09T14:50:06.351Z,7.82
2022-10-09T14:53:10.727Z,7.67
2022-10-09T14:56:20.894Z,7.87
2022-10-09T14:59:25.470Z,7.67
2022-10-09T15:02:29.987Z,7.67
2022-10-09T15:05:36.918Z,7.68
2022-10-09T15:08:43.545Z,7.58
2022-10-09T15:11:47.949Z,7.81
2022-10-09T15:14:52.540Z,7.66
2022-10-09T15:17:57.237Z,7.76
2022-10-09T15:21:01.784Z,7.65
2022-10-09T15:24:06.894Z,7.76
2022-10-09T15:27:11.328Z,7.39
2022-10-09T15:30:15.801Z,7.32
2022-10-09T15:33:20.661Z,7.09
2022-10-09T15:36:26.364Z,7.36
2022-10-09T15:39:30.622Z,7.31
2022-10-09T15:42:37.631Z,7.00
2022-10-09T15:45:42.478Z,7.15
2022-10-09T15:48:48.856Z,7.05
2022-10-09T15:51:53.354Z,6.93
2022-10-09T15:54:57.774Z,6.81
2022-10-09T15:58:02.219Z,6.77
2022-10-09T16:01:13.109Z,6.87
2022-10-09T16:04:17.335Z,6.91
2022-10-09T16:07:21.918Z,6.80
2022-10-09T16:10:26.287Z,6.80
2022-10-09T16:13:30.764Z,6.63
2022-10-09T16:16:35.136Z,6.42
2022-10-09T16:19:39.698Z,6.41
2022-10-09T16:22:45.560Z,6.38
2022-10-09T16:25:58.081Z,6.26
2022-10-09T16:29:02.534Z,6.18
2022-10-09T16:32:06.850Z,6.15
2022-10-09T16:35:11.339Z,6.21
2022-10-09T16:38:16.113Z,6.32
2022-10-09T16:41:22.483Z,6.21
2022-10-09T16:44:26.946Z,6.16
2022-10-09T16:47:31.702Z,5.99
2022-10-09T16:50:42.081Z,5.89
2022-10-09T16:53:49.352Z,5.83
2022-10-09T16:56:53.651Z,5.63
2022-10-09T16:59:59.529Z,5.76
2022-10-09T17:03:04.021Z,5.70
2022-10-09T17:06:10.715Z,5.53
2022-10-09T17:09:15.962Z,5.63
2022-10-09T17:12:20.521Z,5.34
2022-10-09T17:15:25.011Z,5.42
2022-10-09T17:18:29.396Z,5.24
2022-10-09T17:21:34.868Z,5.59
2022-10-09T17:24:40.160Z,5.60
2022-10-09T17:27:44.349Z,5.50
2022-10-09T17:30:50.186Z,5.39
2022-10-09T17:33:57.114Z,5.35
2022-10-09T17:37:01.568Z,5.56
2022-10-09T17:40:06.789Z,5.40
2022-10-09T17:43:11.091Z,5.31
2022-10-09T17:46:16.609Z,5.33
2022-10-09T17:49:21.004Z,5.37
2022-10-09T17:52:25.356Z,5.19
2022-10-09T17:55:30.464Z,5.29
2022-10-09T17:58:35.155Z,5.11
2022-10-09T18:01:40.048Z,4.89
2022-10-09T18:04:44.559Z,5.06
2022-10-09T18:07:49.302Z,4.98
2022-10-09T18:11:02.058Z,4.98
2022-10-09T18:14:06.656Z,5.08
2022-10-09T18:17:11.052Z,5.13
2022-10-09T18:20:15.255Z,5.17
2022-10-09T18:23:22.673Z,4.88
2022-10-09T18:26:27.201Z,4.96
2022-10-09T18:29:31.737Z,4.85
2022-10-09T18:32:36.226Z,4.62
2022-10-09T18:35:41.208Z,4.63
2022-10-09T18:38:47.276Z,4.58
2022-10-09T18:41:52.055Z,4.28
2022-10-09T18:44:58.863Z,4.27
2022-10-09T18:48:04.519Z,4.20
2022-10-09T18:51:14.312Z,4.31
2022-10-09T18:54:20.668Z,4.28
2022-10-09T18:57:28.029Z,4.43
2022-10-09T19:00:32.705Z,4.35
2022-10-09T19:03:37.545Z,4.20
2022-10-09T19:06:41.958Z,3.86
2022-10-09T19:09:53.571Z,3.91
2022-10-09T19:13:00.657Z,4.03
2022-10-09T19:16:06.512Z,3.93
2022-10-09T19:19:11.100Z,4.14
2022-10-09T19:22:18.128Z,4.15
2022-10-09T19:25:24.607Z,4.26
2022-10-09T19:28:33.736Z,4.24
2022-10-09T19:31:38.492Z,3.92
2022-10-09T19:34:44.872Z,3.85
2022-10-09T19:37:49.678Z,3.66
2022-10-09T19:40:54.471Z,3.64
2022-10-09T19:44:00.610Z,3.80
2022-10-09T19:47:05.174Z,3.91
2022-10-09T19:50:10.187Z,3.77
2022-10-09T19:53:15.348Z,3.85
2022-10-09T19:56:25.826Z,3.87
2022-10-09T19:59:30.946Z,3.80
2022-10-09T20:02:35.455Z,3.79
2022-10-09T20:05:39.874Z,3.62
2022-10-09T20:08:45.991Z,3.68
2022-10-09T20:11:51.149Z,3.40
2022-10-09T20:14:55.466Z,3.37
2022-10-09T20:17:59.909Z,3.43
2022-10-09T20:21:04.470Z,3.39
2022-10-09T20:24:09.218Z,3.53
2022-10-09T20:27:13.861Z,3.60
2022-10-09T20:30:18.471Z,3.59
2022-10-09T20:33:22.808Z,3.47
2022-10-09T20:36:36.152Z,3.74
2022-10-09T20:39:40.798Z,3.59
2022-10-09T20:42:45.181Z,3.48
2022-10-09T20:45:49.911Z,3.64
2022-10-09T20:48:54.864Z,3.66
2022-10-09T20:51:59.468Z,3.78
2022-10-09T20:55:03.903Z,3.87
2022-10-09T20:58:08.362Z,3.86
2022-10-09T21:01:14.912Z,3.68
2022-10-09T21:04:19.523Z,3.34
2022-10-09T21:07:23.812Z,3.21
2022-10-09T21:10:28.190Z,3.49
2022-10-09T21:13:32.697Z,3.54
2022-10-09T21:16:36.959Z,3.43
2022-10-09T21:19:41.228Z,3.46
2022-10-09T21:22:45.641Z,3.68
2022-10-09T21:25:54.941Z,3.70
2022-10-09T21:29:00.123Z,3.68
2022-10-09T21:32:04.867Z,3.83
2022-10-09T21:35:09.824Z,3.79
2022-10-09T21:38:17.171Z,3.71
2022-10-09T21:41:21.547Z,3.65
2022-10-09T21:44:26.206Z,3.71
2022-10-09T21:47:31.989Z,3.69
2022-10-09T21:50:37.773Z,3.55
2022-10-09T21:53:42.565Z,3.73
2022-10-09T21:56:47.057Z,3.91
2022-10-09T21:59:51.355Z,3.88
2022-10-09T22:02:55.661Z,4.21
2022-10-09T22:06:05.692Z,4.43
2022-10-09T22:09:11.207Z,4.55
2022-10-09T22:12:15.320Z,4.41
2022-10-09T22:15:19.901Z,4.54
2022-10-09T22:18:24.508Z,4.56
2022-10-09T22:21:29.004Z,4.87
2022-10-09T22:24:33.713Z,4.91
2022-10-09T22:27:40.816Z,5.07
2022-10-09T22:30:45.541Z,5.17
2022-10-09T22:34:00.371Z,5.22
2022-10-09T22:37:05.408Z,5.24
2022-10-09T22:40:10.020Z,5.26
2022-10-09T22:43:14.420Z,5.44
2022-10-09T22:46:22.151Z,5.69
2022-10-09T22:49:26.642Z,5.85
2022-10-09T22:52:31.060Z,5.84
2022-10-09T22:55:35.464Z,5.98
2022-10-09T22:58:40.436Z,5.84
2022-10-09T23:01:52.320Z,6.13
2022-10-09T23:04:56.815Z,5.86
2022-10-09T23:08:01.158Z,5.80
2022-10-09T23:11:05.971Z,5.68
2022-10-09T23:14:11.584Z,5.79
2022-10-09T23:17:15.786Z,6.20
2022-10-09T23:20:20.303Z,6.42
2022-10-09T23:23:25.078Z,6.64
2022-10-09T23:26:32.746Z,6.50
2022-10-09T23:29:37.166Z,6.75
2022-10-09T23:32:41.558Z,6.64
2022-10-09T23:35:46.050Z,6.42
2022-10-09T23:38:51.932Z,6.56
2022-10-09T23:41:56.267Z,7.01
2022-10-09T23:45:00.760Z,7.05
2022-10-09T23:48:06.919Z,7.14
2022-10-09T23:51:11.960Z,7.16
2022-10-09T23:54:16.568Z,7.21
2022-10-09T23:57:20.915Z,7.29
